Latest Coastal Weather Observations for Esperance

IDW60701

Issued at 10:53 am WST Monday 27 March 2017 (issued every 10 minutes, with the page automatically refreshed every 10 minutes)

About coastal observations | Map of coastal stations | Coastal observations for WA | Marine services | Other Formats
Station Details ID: 009789 Name: ESPERANCE Lat: -33.83 Lon: 121.89 Height: 25.0 m
Data from the previous 72 hours. | See also: Recent months at Esperance
Date/Time
WST
Temp
°C
Wind Pressure Rain since
9am
mm
Weather Cloud Vis
km
Sea
Height
m
Swell
Dir  Spd
kts
Gust
kts
hPa Trend Height
m
Period
s
Dir
27/10:30am 18.5 WSW 8 11 1021.4 - 0.0 - Mostly clear 10 - - - -
27/10:00am 18.4 W 8 12 1021.4 - 0.0 - Partly cloudy 10 - - - -
27/09:30am 17.6 NW 8 11 1021.4 - 0.0 - Partly cloudy 10 - - - -
27/09:00am 17.4 NW 7 9 1021.2 R 0.0 - Cloudy 10 - - - -
27/08:30am 16.2 NW 8 10 1021.1 - 0.0 - Mostly cloudy 10 - - - -
27/08:00am 15.6 NW 7 11 1020.6 - 0.0 - Partly cloudy 10 - - - -
27/07:30am 15.8 WNW 5 8 1020.2 - 0.0 - Mostly clear 10 - - - -
27/07:00am 16.3 SW 5 9 1019.8 - 0.0 - Mostly clear 10 - - - -
27/06:30am 15.7 SSW 6 8 1019.5 - 0.0 - Partly cloudy 10 - - - -
27/06:00am 15.7 SSW 7 10 1019.5 R 0.0 - Mostly clear 10 - - - -
27/05:30am 16.1 SSW 9 15 1019.3 - 0.0 - Partly cloudy 10 - - - -
27/05:00am 15.9 SSW 9 15 1019.2 - 0.0 - Partly cloudy 10 - - - -
27/04:30am 15.7 SW 7 11 1019.2 - 0.0 - Partly cloudy 10 - - - -
27/04:00am 13.2 WNW 7 10 1018.9 - 0.0 - - 10 - - - -
27/03:30am 14.0 WNW 7 10 1018.5 - 0.0 - Partly cloudy 10 - - - -
27/03:00am 13.6 WNW 9 13 1018.3 R 0.0 - Cloudy 10 - - - -
27/02:30am 13.8 WNW 9 13 1018.1 - 0.0 - Partly cloudy 10 - - - -
27/02:00am 14.3 WNW 8 11 1017.9 - 0.0 - Partly cloudy 10 - - - -
27/01:30am 15.1 W 8 15 1017.7 - 0.0 - Partly cloudy 10 - - - -
27/01:00am 16.9 WSW 11 19 1017.6 - 0.0 - - 10 - - - -
27/12:30am 17.2 WSW 12 20 1017.6 - 0.0 - Partly cloudy 10 - - - -
27/12:00am 17.2 WSW 11 18 1017.6 R 0.0 - Cloudy 10 - - - -
 
Date/Time
WST
Temp
°C
Wind Pressure Rain since
9am
mm
Weather Cloud Vis
km
Sea
Height
m
Swell
Dir  Spd
kts
Gust
kts
hPa Trend Height
m
Period
s
Dir
26/11:30pm 17.3 WSW 11 20 1017.4 - 0.0 - Partly cloudy 10 - - - -
26/11:00pm 17.1 WSW 11 22 1017.2 - 0.0 - Partly cloudy 10 - - - -
26/10:30pm 17.3 WSW 13 21 1016.9 - 0.0 - Partly cloudy 10 - - - -
26/10:00pm 17.5 WSW 13 20 1016.9 - 0.0 - Partly cloudy 10 - - - -
26/09:30pm 17.5 WSW 14 24 1016.6 - 0.0 - Partly cloudy 10 - - - -
26/09:09pm 17.7 WSW 15 27 1016.3 - 0.0 - Partly cloudy 10 - - - -
26/09:00pm 17.6 WSW 14 26 1016.2 R 0.0 - Cloudy 10 - - - -
26/08:50pm 17.7 WSW 15 27 1016.3 - 0.0 - Partly cloudy 10 - - - -
26/08:30pm 17.5 WSW 13 23 1016.3 - 0.0 - Partly cloudy 10 - - - -
26/08:00pm 17.1 WSW 12 21 1015.7 - 0.0 - Partly cloudy 10 - - - -
26/07:32pm 17.3 SW 16 26 1015.3 - 0.0 - - 10 - - - -
26/07:30pm 17.4 SW 17 26 1015.3 - 0.0 - - 10 - - - -
26/07:00pm 17.6 WSW 16 26 1014.7 - 0.0 - - 10 - - - -
26/06:36pm 17.5 WSW 15 25 1014.3 - 0.0 - Partly cloudy 10 - - - -
26/06:30pm 17.7 WSW 16 25 1014.2 - 0.0 - Partly cloudy 10 - - - -
26/06:18pm 17.6 WSW 15 25 1014.1 - 0.0 - Partly cloudy 10 - - - -
26/06:00pm 17.6 WSW 15 24 1013.7 R 0.0 - Mostly clear 10 - - - -
26/05:30pm 17.8 SW 13 23 1013.2 - 0.0 - - 10 - - - -
26/05:00pm 18.5 SW 15 29 1012.4 - 0.0 - Cloudy 10 - - - -
26/04:30pm 18.5 SW 16 27 1011.8 - 0.0 - Partly cloudy 10 - - - -
26/04:00pm 19.1 SW 15 28 1011.0 - 0.0 - Partly cloudy 10 - - - -
26/03:49pm 19.6 WSW 15 27 1010.9 - 0.0 - Partly cloudy 10 - - - -
26/03:30pm 19.7 SW 15 24 1010.6 - 0.0 - Partly cloudy 10 - - - -
26/03:02pm 20.8 WSW 15 26 1010.0 - 0.0 - Partly cloudy 10 - - - -
26/03:00pm 20.8 WSW 14 26 1010.1 R 0.0 - Mostly clear 10 - - - -
26/02:30pm 20.5 WSW 16 26 1009.5 - 0.0 - Partly cloudy 10 - - - -
26/02:28pm 20.4 WSW 16 26 1009.5 - 0.0 - Partly cloudy 10 - - - -
26/02:00pm 20.7 WSW 15 24 1009.0 - 0.0 - - 10 - - - -
26/01:30pm 20.7 WSW 15 28 1008.8 - 0.0 - Partly cloudy 10 - - - -
26/01:00pm 19.9 WSW 17 28 1008.9 - 0.0 - Partly cloudy 10 - - - -
26/12:30pm 19.2 W 18 32 1008.9 - 0.0 - Cloudy 10 - - - -
26/12:14pm 19.1 W 15 25 1008.7 - 0.0 - Cloudy 10 - - - -
26/12:00pm 18.2 W 14 21 1008.6 R 0.0 - Partly cloudy 10 - - - -
26/11:38am 17.5 WSW 15 25 1008.7 - 0.0 - Partly cloudy 10 - - - -
26/11:31am 17.3 W 12 25 1008.7 - 0.0 - Partly cloudy 10 - - - -
26/11:30am 17.3 W 11 22 1008.7 - 0.0 - Partly cloudy 10 - - - -
26/11:13am 15.7 WSW 15 25 1009.1 - 0.0 - Partly cloudy 4 - - - -
26/11:05am 16.2 WSW 12 22 1009.0 - 0.0 - Partly cloudy 7 - - - -
26/11:00am 17.2 WSW 13 22 1008.9 - 0.0 - Partly cloudy 10 - - - -
26/10:30am 16.7 WSW 14 21 1008.6 - 0.0 - Partly cloudy 10 - - - -
26/10:00am 20.7 W 15 27 1007.6 - 0.0 - Partly cloudy 10 - - - -
26/09:53am 20.7 W 16 26 1007.5 - 0.0 - Partly cloudy 10 - - - -
26/09:30am 20.8 W 15 23 1007.5 - 0.0 - Partly cloudy 10 - - - -
26/09:04am 21.1 WNW 15 26 1007.1 - 0.0 - Partly cloudy 10 - - - -
26/09:00am 21.1 WNW 14 22 1007.2 R 0.0 - Mostly clear 10 - - - -
26/08:45am 20.7 WNW 15 26 1007.0 - 0.0 - Partly cloudy 10 - - - -
26/08:30am 20.1 WNW 18 24 1006.8 - 0.0 - Partly cloudy 10 - - - -
26/08:00am 19.7 WNW 15 23 1006.7 - 0.0 - Partly cloudy 10 - - - -
26/07:30am 19.6 WNW 14 20 1006.0 - 0.0 - - 10 - - - -
26/07:00am 19.2 WNW 10 16 1006.1 - 0.0 - Partly cloudy 10 - - - -
26/06:30am 19.4 WNW 11 18 1005.7 - 0.0 - Partly cloudy 10 - - - -
26/06:20am 19.4 WNW 11 16 1005.7 - 0.0 - Partly cloudy 10 - - - -
26/06:00am 19.7 WNW 12 17 1005.3 R 0.0 - Cloudy 10 - - - -
26/05:51am 19.9 NW 13 19 1005.2 - 0.0 - Partly cloudy 10 - - - -
26/05:30am 20.0 NW 13 19 1004.7 - 0.0 - Partly cloudy 10 - - - -
26/05:00am 19.4 NNW 14 19 1004.0 - 0.0 - - 10 - - - -
26/04:30am 19.4 N 14 19 1003.7 - 0.0 - - 10 - - - -
26/04:00am 19.6 NNW 13 17 1003.9 - 0.0 - - 10 - - - -
26/03:30am 19.7 N 16 23 1003.8 - 0.0 - Partly cloudy 10 - - - -
26/03:00am 19.8 N 18 25 1004.2 F 0.0 - Mostly clear 10 - - - -
26/02:30am 19.8 N 15 19 1004.6 - 0.0 - Partly cloudy 10 - - - -
26/02:00am 19.2 N 12 18 1005.1 - 0.0 - - 10 - - - -
26/01:30am 19.2 N 11 15 1005.5 - 0.0 - - 10 - - - -
26/01:00am 19.1 N 10 13 1005.9 - 0.0 - - 10 - - - -
26/12:30am 19.4 N 12 19 1005.6 - 0.0 - - 10 - - - -
26/12:00am 19.6 N 12 17 1005.9 F 0.0 - - 10 - - - -
 
Date/Time
WST
Temp
°C
Wind Pressure Rain since
9am
mm
Weather Cloud Vis
km
Sea
Height
m
Swell
Dir  Spd
kts
Gust
kts
hPa Trend Height
m
Period
s
Dir
25/11:30pm 19.6 N 12 18 1006.1 - 0.0 - - 10 - - - -
25/11:00pm 19.9 NNE 8 12 1006.9 - 0.0 - Partly cloudy 10 - - - -
25/10:30pm 19.9 NE 7 11 1007.6 - 0.0 - Partly cloudy 10 - - - -
25/10:00pm 19.8 NE 7 8 1008.3 - 0.0 - Partly cloudy 10 - - - -
25/09:30pm 19.8 NE 5 7 1009.0 - 0.0 - Partly cloudy 10 - - - -
25/09:00pm 19.7 NNE 5 7 1009.3 F 0.0 - Cloudy 10 - - - -
25/08:30pm 19.8 NNE 6 9 1009.4 - 0.0 - Cloudy 10 - - - -
25/08:00pm 19.9 NNE 5 7 1009.4 - 0.0 - Partly cloudy 10 - - - -
25/07:30pm 19.9 N 7 9 1009.2 - 0.0 - - 10 - - - -
25/07:00pm 20.4 NNE 7 9 1009.1 - 0.0 - Partly cloudy 10 - - - -
25/06:30pm 21.2 NNE 10 14 1008.9 - 0.0 - Cloudy 10 - - - -
25/06:00pm 21.9 NE 9 13 1008.9 F 0.0 - Mostly cloudy 10 - - - -
25/05:30pm 22.4 NE 6 9 1009.1 - 0.0 - Partly cloudy 10 - - - -
25/05:00pm 22.7 NE 6 9 1009.1 - 0.0 - Partly cloudy 10 - - - -
25/04:30pm 22.8 NNE 7 9 1009.0 - 0.0 - Partly cloudy 10 - - - -
25/04:00pm 22.3 SE 5 9 1009.0 - 0.0 - Cloudy 10 - - - -
25/03:30pm 22.4 SE 8 11 1009.3 - 0.0 - Partly cloudy 10 - - - -
25/03:00pm 22.3 SE 9 12 1009.5 F 0.0 - Partly cloudy 10 - - - -
25/02:30pm 21.9 SE 8 11 1009.9 - 0.0 - Partly cloudy 10 - - - -
25/02:00pm 21.0 SE 9 11 1010.2 - 0.0 - Partly cloudy 10 - - - -
25/01:30pm 20.7 SE 8 11 1010.7 - 0.0 - Partly cloudy 10 - - - -
25/01:00pm 20.2 SE 8 11 1011.5 - 0.0 - Partly cloudy 10 - - - -
25/12:30pm 20.3 SSE 8 10 1012.0 - 0.0 - Cloudy 10 - - - -
25/12:00pm 20.4 SSE 7 10 1012.5 F 0.0 - Cloudy 10 - - - -
25/11:30am 21.0 SSE 5 7 1013.1 - 0.0 - Partly cloudy 10 - - - -
25/11:00am 20.4 SE 7 8 1013.5 - 0.0 - Partly cloudy 10 - - - -
25/10:30am 20.1 SSE 5 7 1014.0 - 0.0 - Partly cloudy 10 - - - -
25/10:00am 20.1 SE 5 7 1014.2 - 0.0 - Partly cloudy 10 - - - -
25/09:30am 20.1 ENE 4 6 1014.6 - 0.0 - Partly cloudy 10 - - - -
25/09:00am 19.7 ENE 3 5 1014.8 F 0.0 - Mostly cloudy 10 - - - -
25/08:30am 18.9 SE 2 4 1014.7 - 0.0 - Cloudy 10 - - - -
25/08:00am 18.3 N 1 4 1014.6 - 0.0 - Cloudy 10 - - - -
25/07:30am 17.7 NNE 3 4 1014.5 - 0.0 - Cloudy 10 - - - -
25/07:00am 17.1 N 2 4 1014.5 - 0.0 - Cloudy 10 - - - -
25/06:30am 16.6 N 3 5 1014.7 - 0.0 - Cloudy 10 - - - -
25/06:00am 16.6 NNE 3 5 1014.5 F 0.0 - Cloudy 10 - - - -
25/05:30am 16.4 NNE 4 5 1014.3 - 0.0 - Cloudy 10 - - - -
25/05:00am 16.4 NNE 4 5 1014.1 - 0.0 - Cloudy 10 - - - -
25/04:30am 16.7 N 4 5 1014.1 - 0.0 - Partly cloudy 10 - - - -
25/04:00am 16.8 NE 3 5 1014.0 - 0.0 - Partly cloudy 10 - - - -
25/03:30am 16.9 N 1 3 1014.1 - 0.0 - Partly cloudy 10 - - - -
25/03:00am 17.0 N 3 4 1014.2 F 0.0 - Cloudy 10 - - - -
25/02:30am 16.8 NNE 3 5 1014.2 - 0.0 - Partly cloudy 10 - - - -
25/02:00am 16.9 ENE 3 4 1014.4 - 0.0 - Partly cloudy 10 - - - -
25/01:30am 18.2 SSE 7 9 1014.3 - 0.0 - Partly cloudy 10 - - - -
25/01:00am 18.2 SE 8 10 1014.3 - 0.0 - - 10 - - - -
25/12:30am 18.5 SE 8 10 1014.5 - 0.0 - Cloudy 10 - - - -
25/12:00am 18.3 SE 8 11 1014.8 F 0.0 - Cloudy 10 - - - -
 
Date/Time
WST
Temp
°C
Wind Pressure Rain since
9am
mm
Weather Cloud Vis
km
Sea
Height
m
Swell
Dir  Spd
kts
Gust
kts
hPa Trend Height
m
Period
s
Dir
24/11:30pm 18.6 SSE 9 11 1014.9 - 0.0 - Cloudy 10 - - - -
24/11:00pm 18.8 SSE 10 12 1015.1 - 0.0 - Partly cloudy 10 - - - -
24/10:30pm 19.0 SE 9 11 1015.3 - 0.0 - Cloudy 10 - - - -
24/10:00pm 19.0 SSE 9 11 1015.6 - 0.0 - Cloudy 10 - - - -
24/09:30pm 19.1 SSE 9 11 1015.9 - 0.0 - Partly cloudy 10 - - - -
24/09:19pm 19.1 SSE 9 11 1016.1 - 0.0 - Partly cloudy 10 - - - -
24/09:03pm 19.2 SSE 8 11 1016.2 - 0.0 - Partly cloudy 10 - - - -
24/09:00pm 19.1 SSE 8 11 1016.2 R 0.0 - Cloudy 10 - - - -
24/08:30pm 19.3 SSE 8 11 1016.2 - 0.0 - Partly cloudy 10 - - - -
24/08:00pm 19.3 SSE 7 9 1016.0 - 0.0 - Partly cloudy 10 - - - -
24/07:30pm 19.2 S 6 9 1015.8 - 0.0 - Cloudy 10 - - - -
24/07:00pm 18.9 S 4 6 1015.5 - 0.0 - Partly cloudy 10 - - - -
24/06:30pm 19.2 SSW 4 6 1015.4 - 0.0 - Partly cloudy 10 - - - -
24/06:00pm 19.3 SSW 7 9 1015.1 R 0.0 - Cloudy 10 - - - -
24/05:30pm 19.6 SSW 5 8 1014.9 - 0.0 - Partly cloudy 10 - - - -
24/05:00pm 19.7 SSW 8 11 1014.7 - 0.0 - Partly cloudy 10 - - - -
24/04:30pm 20.0 S 10 16 1014.3 - 0.0 - Partly cloudy 10 - - - -
24/04:00pm 20.6 SSW 10 15 1014.1 - 0.0 - Partly cloudy 10 - - - -
24/03:30pm 21.1 SSW 11 17 1014.1 - 0.0 - - 10 - - - -
24/03:00pm 21.4 SSW 11 16 1014.1 R 0.0 - Mostly clear 10 - - - -
24/02:30pm 21.6 SSW 11 16 1014.2 - 0.0 - Partly cloudy 10 - - - -
24/02:00pm 21.8 SSW 10 15 1014.3 - 0.0 - Mostly clear 10 - - - -
24/01:30pm 22.8 SW 9 17 1014.3 - 0.0 - Mostly clear 10 - - - -
24/01:00pm 21.8 WSW 9 15 1014.6 - 0.0 - Mostly clear 10 - - - -
24/12:30pm 21.6 W 8 12 1014.8 - 0.0 - Partly cloudy 10 - - - -
24/12:00pm 22.6 SW 8 11 1015.0 R 0.0 - Cloudy 10 - - - -
24/11:30am 22.2 WSW 8 12 1015.1 - 0.0 - Partly cloudy 10 - - - -
24/11:00am 22.2 SW 8 12 1015.0 - 0.0 - Partly cloudy 10 - - - -

Other Formats:

Comma delimited format used in spreadsheet applications
http://www.bom.gov.au/fwo/IDW60701/IDW60701.94638.axf

JavaScript Object Notation format (JSON) in row-major order
http://www.bom.gov.au/fwo/IDW60701/IDW60701.94638.json